Time;durP1;ratioP1;P1;durP2;ratioP2;P2;SDS_P1;SDS_P2;PMS_P1;PMS_P2;Temp;Humidity;BMP_temperature;BMP_pressure;BME280_temperature;BME280_humidity;BME280_pressure;Samples;Min_cycle;Max_cycle;Signal;HPM_P1;HPM_P2
2021/12/17 00:00:33;;;;;;;28.15;8.68;;;;;;;;;;8456686;28;20047;-72
2021/12/17 00:04:54;;;;;;;20.85;8.93;;;;;;;;;;8460917;28;20077;-73
2021/12/17 00:08:58;;;;;;;25.05;8.35;;;;;;;;;;8456978;28;20040;-74
2021/12/17 00:13:02;;;;;;;29.45;8.30;;;;;;;;;;8455082;28;20051;-77
2021/12/17 00:17:08;;;;;;;20.77;7.20;;;;;;;;;;8447771;28;20074;-73
2021/12/17 00:51:57;;;;;;;12.95;5.93;;;;;;;;;;8457410;28;20495;-76
2021/12/17 00:56:01;;;;;;;20.75;6.20;;;;;;;;;;8449183;28;20410;-72
2021/12/17 01:00:09;;;;;;;18.15;6.38;;;;;;;;;;8460528;28;20054;-75
2021/12/17 01:04:12;;;;;;;15.63;6.28;;;;;;;;;;8466412;28;20043;-73
2021/12/17 01:08:15;;;;;;;20.63;5.95;;;;;;;;;;8465727;28;20043;-78
2021/12/17 01:12:20;;;;;;;15.40;5.53;;;;;;;;;;8465688;28;20055;-80
2021/12/17 01:16:24;;;;;;;15.75;5.38;;;;;;;;;;8465201;28;20055;-72
2021/12/17 01:20:52;;;;;;;16.52;4.90;;;;;;;;;;8465445;28;20551;-80
2021/12/17 01:25:00;;;;;;;20.10;4.80;;;;;;;;;;8465220;28;20070;-72
2021/12/17 01:42:08;;;;;;;17.83;4.95;;;;;;;;;;8438364;28;20067;-73
2021/12/17 01:46:15;;;;;;;19.90;5.50;;;;;;;;;;8465051;28;20403;-72
2021/12/17 02:03:24;;;;;;;11.05;4.30;;;;;;;;;;8464198;28;20050;-78
2021/12/17 02:07:27;;;;;;;20.48;4.93;;;;;;;;;;8464125;28;20050;-76
2021/12/17 02:21:07;;;;;;;23.92;6.30;;;;;;;;;;8463929;28;20040;-71
2021/12/17 02:29:48;;;;;;;15.70;5.45;;;;;;;;;;8463731;28;20047;-81
2021/12/17 02:33:52;;;;;;;28.50;7.23;;;;;;;;;;8463859;28;20048;-80
2021/12/17 02:37:57;;;;;;;16.58;4.78;;;;;;;;;;8463461;28;20044;-72
2021/12/17 02:46:25;;;;;;;20.50;5.20;;;;;;;;;;8464058;28;20039;-73
2021/12/17 02:50:28;;;;;;;24.30;6.72;;;;;;;;;;8464085;28;20047;-80
2021/12/17 02:54:34;;;;;;;24.50;6.72;;;;;;;;;;8463441;28;20055;-72
2021/12/17 02:58:39;;;;;;;30.02;6.80;;;;;;;;;;8463192;28;20100;-72
2021/12/17 03:02:42;;;;;;;26.05;7.22;;;;;;;;;;8463346;28;20402;-78
2021/12/17 03:06:45;;;;;;;26.83;7.32;;;;;;;;;;8463781;28;20044;-73
2021/12/17 03:10:51;;;;;;;20.38;7.22;;;;;;;;;;8463254;28;20048;-76
2021/12/17 03:15:01;;;;;;;22.58;6.28;;;;;;;;;;8462955;28;20426;-72
2021/12/17 03:19:10;;;;;;;17.60;7.22;;;;;;;;;;8463000;28;20081;-74
2021/12/17 03:23:27;;;;;;;21.98;7.75;;;;;;;;;;8467742;28;20475;-80
2021/12/17 03:27:32;;;;;;;17.30;6.93;;;;;;;;;;8469137;28;20486;-73
2021/12/17 03:31:35;;;;;;;17.05;6.20;;;;;;;;;;8469649;28;20086;-72
2021/12/17 03:35:38;;;;;;;19.23;6.93;;;;;;;;;;8468734;28;20109;-79
2021/12/17 03:39:41;;;;;;;25.17;6.13;;;;;;;;;;8468645;28;20048;-73
2021/12/17 03:43:47;;;;;;;15.13;4.90;;;;;;;;;;8469090;28;20526;-72
2021/12/17 03:47:49;;;;;;;19.98;4.97;;;;;;;;;;8469294;28;20054;-72
2021/12/17 03:52:04;;;;;;;16.58;4.82;;;;;;;;;;8468774;28;20043;-79
2021/12/17 03:56:07;;;;;;;17.52;5.28;;;;;;;;;;8467711;28;20120;-73
2021/12/17 04:00:14;;;;;;;16.35;4.78;;;;;;;;;;8468704;28;20391;-72
2021/12/17 04:04:17;;;;;;;17.38;4.82;;;;;;;;;;8468470;28;20043;-77
2021/12/17 04:08:20;;;;;;;12.80;4.32;;;;;;;;;;8468290;28;20051;-72
2021/12/17 04:12:33;;;;;;;16.33;5.50;;;;;;;;;;8467632;28;20075;-78
2021/12/17 04:16:37;;;;;;;18.20;5.90;;;;;;;;;;8467295;28;20054;-72
2021/12/17 04:20:40;;;;;;;13.88;6.57;;;;;;;;;;8467935;28;20043;-72
2021/12/17 04:24:43;;;;;;;21.98;7.68;;;;;;;;;;8467329;28;20039;-73
2021/12/17 04:28:47;;;;;;;20.88;7.53;;;;;;;;;;8467625;28;20126;-75
2021/12/17 04:32:53;;;;;;;29.38;8.98;;;;;;;;;;8466991;28;20096;-72
2021/12/17 04:36:57;;;;;;;16.48;6.63;;;;;;;;;;8466763;28;20074;-72
2021/12/17 04:41:29;;;;;;;23.92;6.93;;;;;;;;;;8466616;28;20090;-72
2021/12/17 04:45:24;;;;;;;21.40;7.18;;;;;;;;;;8466404;28;20043;-72
2021/12/17 04:58:09;;;;;;;24.27;7.65;;;;;;;;;;8466074;28;20043;-72
2021/12/17 05:02:11;;;;;;;21.70;6.68;;;;;;;;;;8465920;28;20167;-72
2021/12/17 05:06:18;;;;;;;24.52;9.60;;;;;;;;;;8465974;28;20044;-71
2021/12/17 05:10:28;;;;;;;25.65;9.95;;;;;;;;;;8466470;28;20055;-74
2021/12/17 05:18:58;;;;;;;18.25;6.63;;;;;;;;;;8465608;28;20498;-78
2021/12/17 05:23:03;;;;;;;24.52;7.65;;;;;;;;;;8465516;28;20047;-72
2021/12/17 05:27:07;;;;;;;23.85;6.90;;;;;;;;;;8465287;28;20078;-80
2021/12/17 05:31:10;;;;;;;19.52;7.72;;;;;;;;;;8465703;28;20597;-80
2021/12/17 05:35:13;;;;;;;20.48;6.82;;;;;;;;;;8465773;28;20046;-80
2021/12/17 05:39:18;;;;;;;19.75;5.78;;;;;;;;;;8465373;28;20058;-71
2021/12/17 05:43:21;;;;;;;18.83;6.13;;;;;;;;;;8464939;28;20043;-73
2021/12/17 05:47:24;;;;;;;12.82;5.70;;;;;;;;;;8464539;28;20051;-79
2021/12/17 05:51:27;;;;;;;20.52;7.10;;;;;;;;;;8464939;28;20457;-72
2021/12/17 05:55:32;;;;;;;17.27;7.07;;;;;;;;;;8464780;28;20090;-80
2021/12/17 05:59:35;;;;;;;13.60;6.47;;;;;;;;;;8463660;28;20509;-72
2021/12/17 06:03:39;;;;;;;16.02;6.90;;;;;;;;;;8463283;28;20045;-73
2021/12/17 06:07:42;;;;;;;19.73;7.45;;;;;;;;;;8461945;28;20071;-72
2021/12/17 06:11:47;;;;;;;17.98;6.80;;;;;;;;;;8463505;28;20046;-76
2021/12/17 06:15:49;;;;;;;21.75;6.07;;;;;;;;;;8463821;28;20061;-76
2021/12/17 06:19:52;;;;;;;16.38;5.68;;;;;;;;;;8464422;28;20502;-72
2021/12/17 06:23:55;;;;;;;18.02;6.00;;;;;;;;;;8463947;28;20050;-72
2021/12/17 06:28:00;;;;;;;17.02;5.75;;;;;;;;;;8463744;28;20043;-73
2021/12/17 06:32:03;;;;;;;16.40;5.80;;;;;;;;;;8464106;28;20095;-72
2021/12/17 06:36:07;;;;;;;12.90;6.22;;;;;;;;;;8463389;28;20092;-75
2021/12/17 06:40:11;;;;;;;18.63;8.38;;;;;;;;;;8463492;28;20048;-78
2021/12/17 06:44:20;;;;;;;19.58;6.90;;;;;;;;;;8463552;28;20490;-71
2021/12/17 06:48:27;;;;;;;22.63;7.38;;;;;;;;;;8463999;28;20044;-72
2021/12/17 07:05:58;;;;;;;26.70;6.97;;;;;;;;;;8468730;28;20047;-71
2021/12/17 07:10:16;;;;;;;13.93;6.07;;;;;;;;;;8469608;28;20048;-71
2021/12/17 07:23:12;;;;;;;13.85;6.15;;;;;;;;;;8470057;28;20491;-79
2021/12/17 07:36:12;;;;;;;18.98;5.78;;;;;;;;;;8365256;28;20465;-78
2021/12/17 07:40:15;;;;;;;16.45;6.68;;;;;;;;;;8469369;28;20039;-77
2021/12/17 07:44:18;;;;;;;23.23;8.93;;;;;;;;;;8458042;28;20043;-78
2021/12/17 07:48:23;;;;;;;22.20;6.22;;;;;;;;;;8451178;28;20036;-71
2021/12/17 07:52:28;;;;;;;16.63;6.47;;;;;;;;;;8446172;28;20048;-73
2021/12/17 07:56:37;;;;;;;19.38;6.15;;;;;;;;;;8445735;28;20057;-73
2021/12/17 08:00:41;;;;;;;20.70;6.82;;;;;;;;;;8450329;28;20518;-72
2021/12/17 08:04:44;;;;;;;15.48;6.13;;;;;;;;;;8448601;28;20036;-74
2021/12/17 08:08:48;;;;;;;22.80;7.22;;;;;;;;;;8450811;28;20051;-72
2021/12/17 08:12:54;;;;;;;19.30;7.03;;;;;;;;;;8450039;28;20040;-72
2021/12/17 08:17:06;;;;;;;18.65;6.45;;;;;;;;;;8448334;28;20090;-72
2021/12/17 08:25:47;;;;;;;22.88;9.30;;;;;;;;;;8442213;28;20046;-74
2021/12/17 08:29:56;;;;;;;19.20;7.45;;;;;;;;;;8464012;28;20471;-76
2021/12/17 08:34:02;;;;;;;16.83;7.28;;;;;;;;;;8466166;28;20051;-80
2021/12/17 08:38:08;;;;;;;21.13;6.93;;;;;;;;;;8467342;28;20048;-72
2021/12/17 08:42:12;;;;;;;19.60;7.40;;;;;;;;;;8460357;28;20048;-82
2021/12/17 08:46:15;;;;;;;12.85;5.97;;;;;;;;;;8676829;22;20297;-81
2021/12/17 08:50:21;;;;;;;16.90;6.63;;;;;;;;;;8414077;28;20066;-80
2021/12/17 08:54:24;;;;;;;15.52;7.72;;;;;;;;;;8416767;28;20040;-77
2021/12/17 08:58:29;;;;;;;21.70;7.95;;;;;;;;;;8408508;28;20056;-83
2021/12/17 09:02:33;;;;;;;22.40;7.50;;;;;;;;;;8399311;28;20226;-77
2021/12/17 09:06:37;;;;;;;17.98;6.70;;;;;;;;;;8405397;28;20135;-83
2021/12/17 09:10:40;;;;;;;19.38;6.63;;;;;;;;;;8396921;28;20041;-80
2021/12/17 09:14:45;;;;;;;17.88;5.60;;;;;;;;;;8417116;28;20112;-76
2021/12/17 09:18:48;;;;;;;19.35;6.10;;;;;;;;;;8400414;28;20060;-79
2021/12/17 09:22:53;;;;;;;20.17;7.70;;;;;;;;;;8413724;28;20058;-81
2021/12/17 09:26:56;;;;;;;19.17;6.05;;;;;;;;;;8394376;28;20044;-82
2021/12/17 09:31:01;;;;;;;20.55;6.53;;;;;;;;;;8393326;28;20052;-80
2021/12/17 09:35:05;;;;;;;18.48;6.82;;;;;;;;;;8398910;28;20056;-78
2021/12/17 09:39:09;;;;;;;14.88;6.78;;;;;;;;;;8379565;28;20119;-82
2021/12/17 09:43:14;;;;;;;17.10;7.20;;;;;;;;;;8410464;28;20071;-81
2021/12/17 09:47:20;;;;;;;17.63;7.15;;;;;;;;;;8394624;28;20076;-81
2021/12/17 09:51:23;;;;;;;22.38;7.78;;;;;;;;;;8412144;28;20047;-81
2021/12/17 09:55:27;;;;;;;23.50;8.60;;;;;;;;;;8393539;28;20045;-80
2021/12/17 09:59:31;;;;;;;19.30;7.63;;;;;;;;;;8408016;28;20049;-80
2021/12/17 10:03:36;;;;;;;23.23;7.93;;;;;;;;;;8390407;28;20076;-80
2021/12/17 10:07:41;;;;;;;19.67;7.65;;;;;;;;;;8375327;28;20044;-80
2021/12/17 10:12:05;;;;;;;12.57;6.63;;;;;;;;;;8379284;28;20041;-80
2021/12/17 10:16:10;;;;;;;15.48;6.38;;;;;;;;;;8392513;28;20575;-82
2021/12/17 10:20:15;;;;;;;13.63;5.60;;;;;;;;;;8411870;28;20353;-79
2021/12/17 10:24:24;;;;;;;17.60;5.38;;;;;;;;;;8413592;28;20048;-80
2021/12/17 10:28:28;;;;;;;13.77;5.65;;;;;;;;;;8394460;28;20040;-83
2021/12/17 10:32:31;;;;;;;22.50;7.72;;;;;;;;;;8401442;28;20041;-78
2021/12/17 10:36:39;;;;;;;14.32;6.13;;;;;;;;;;8394796;28;20073;-81
2021/12/17 10:40:45;;;;;;;14.35;6.25;;;;;;;;;;8407250;28;20638;-78
2021/12/17 10:45:04;;;;;;;21.63;6.82;;;;;;;;;;8413155;28;20057;-83
2021/12/17 10:49:17;;;;;;;20.60;6.60;;;;;;;;;;8414585;28;20040;-79
2021/12/17 10:53:24;;;;;;;20.05;9.00;;;;;;;;;;8412853;28;20055;-84
2021/12/17 10:57:31;;;;;;;26.23;8.40;;;;;;;;;;8401649;28;20048;-80
2021/12/17 11:01:37;;;;;;;21.02;8.10;;;;;;;;;;8398033;28;20040;-83
2021/12/17 11:05:41;;;;;;;23.85;9.15;;;;;;;;;;8407807;28;20060;-80
2021/12/17 11:09:49;;;;;;;19.67;8.32;;;;;;;;;;8390824;28;20060;-81
2021/12/17 11:13:57;;;;;;;22.40;9.55;;;;;;;;;;8424343;28;20107;-78
2021/12/17 11:18:03;;;;;;;33.05;11.63;;;;;;;;;;8424794;28;20071;-83
2021/12/17 11:22:06;;;;;;;25.95;10.23;;;;;;;;;;8411208;28;20048;-84
2021/12/17 11:26:11;;;;;;;25.75;9.32;;;;;;;;;;8391175;28;20108;-83
2021/12/17 11:30:17;;;;;;;20.48;7.45;;;;;;;;;;8392114;28;20104;-85
2021/12/17 11:34:21;;;;;;;21.40;10.27;;;;;;;;;;8396595;28;20061;-85
2021/12/17 11:38:38;;;;;;;24.52;7.45;;;;;;;;;;8377542;28;20045;-75
2021/12/17 11:43:15;;;;;;;18.40;7.97;;;;;;;;;;8376312;28;20056;-79
2021/12/17 11:47:18;;;;;;;25.27;9.32;;;;;;;;;;8394054;28;20116;-83
2021/12/17 11:51:25;;;;;;;21.52;7.63;;;;;;;;;;8397345;28;20112;-82
2021/12/17 11:55:34;;;;;;;20.08;8.00;;;;;;;;;;8405253;28;20243;-79
2021/12/17 11:59:42;;;;;;;22.75;8.57;;;;;;;;;;8393662;28;20064;-83
2021/12/17 12:03:46;;;;;;;28.60;10.70;;;;;;;;;;8409691;28;20186;-83
2021/12/17 12:07:50;;;;;;;27.05;11.63;;;;;;;;;;8409818;28;20280;-76
2021/12/17 12:12:11;;;;;;;24.15;10.25;;;;;;;;;;8387469;28;20044;-80
2021/12/17 12:16:19;;;;;;;20.67;8.43;;;;;;;;;;8413351;28;20389;-74
2021/12/17 12:21:04;;;;;;;23.40;8.98;;;;;;;;;;8389952;28;20104;-78
2021/12/17 12:25:29;;;;;;;23.45;8.63;;;;;;;;;;8287501;28;20049;-82
2021/12/17 12:29:32;;;;;;;27.10;9.27;;;;;;;;;;8287518;28;20058;-83
2021/12/17 12:33:38;;;;;;;16.33;8.88;;;;;;;;;;8287273;28;20046;-75
2021/12/17 12:37:41;;;;;;;24.48;9.63;;;;;;;;;;8303643;28;20053;-83
2021/12/17 12:41:58;;;;;;;20.02;9.48;;;;;;;;;;8315266;28;20120;-76
2021/12/17 12:46:02;;;;;;;20.80;9.20;;;;;;;;;;8317484;28;20057;-80
2021/12/17 12:50:12;;;;;;;21.15;8.43;;;;;;;;;;8302394;28;20072;-78
2021/12/17 12:54:17;;;;;;;32.45;11.77;;;;;;;;;;8322359;28;20057;-79
2021/12/17 12:58:28;;;;;;;90.68;26.83;;;;;;;;;;8358299;28;20112;-80
2021/12/17 13:02:31;;;;;;;35.78;12.93;;;;;;;;;;8364815;28;21287;-76
2021/12/17 13:06:49;;;;;;;27.83;11.55;;;;;;;;;;8365240;28;20037;-79
2021/12/17 13:10:55;;;;;;;31.25;11.27;;;;;;;;;;8358452;28;20096;-75
2021/12/17 13:15:01;;;;;;;29.13;12.82;;;;;;;;;;8369799;28;20246;-82
2021/12/17 13:23:30;;;;;;;80.50;28.02;;;;;;;;;;8356057;28;20045;-80
2021/12/17 13:27:34;;;;;;;39.05;15.68;;;;;;;;;;8354505;28;20096;-80
2021/12/17 13:31:41;;;;;;;21.55;9.65;;;;;;;;;;8354498;28;20052;-81
2021/12/17 13:35:47;;;;;;;19.73;9.60;;;;;;;;;;8353859;28;20107;-77
2021/12/17 13:39:55;;;;;;;27.95;9.23;;;;;;;;;;8353391;28;20294;-82
2021/12/17 13:43:58;;;;;;;23.33;9.38;;;;;;;;;;8354172;28;20048;-78
2021/12/17 13:48:02;;;;;;;25.45;10.32;;;;;;;;;;8382903;28;20285;-74
2021/12/17 13:52:06;;;;;;;31.70;12.45;;;;;;;;;;8397379;28;20234;-74
2021/12/17 13:56:15;;;;;;;31.25;8.73;;;;;;;;;;8365514;28;20079;-76
2021/12/17 14:00:22;;;;;;;45.75;18.90;;;;;;;;;;8382122;28;20344;-74
2021/12/17 14:04:26;;;;;;;22.08;9.70;;;;;;;;;;8383719;28;20048;-74
2021/12/17 14:08:30;;;;;;;53.03;21.05;;;;;;;;;;8381998;28;20047;-75
2021/12/17 14:12:39;;;;;;;18.40;9.10;;;;;;;;;;8387527;28;20338;-75
2021/12/17 14:16:46;;;;;;;22.63;11.13;;;;;;;;;;8382054;28;20041;-75
2021/12/17 14:20:53;;;;;;;27.35;9.23;;;;;;;;;;8400080;28;20327;-75
2021/12/17 14:24:58;;;;;;;20.90;8.90;;;;;;;;;;8373150;28;20261;-75
2021/12/17 14:29:13;;;;;;;23.45;10.50;;;;;;;;;;8366924;28;20284;-75
2021/12/17 14:33:20;;;;;;;42.35;15.27;;;;;;;;;;8381717;28;20112;-74
2021/12/17 14:37:24;;;;;;;25.10;10.48;;;;;;;;;;8383539;28;20045;-76
2021/12/17 14:41:33;;;;;;;35.33;13.52;;;;;;;;;;8407974;28;20060;-74
2021/12/17 14:45:44;;;;;;;19.88;10.23;;;;;;;;;;8412837;28;20147;-74
2021/12/17 15:02:55;;;;;;;24.55;11.00;;;;;;;;;;8362071;28;20045;-75
2021/12/17 15:07:00;;;;;;;33.60;11.80;;;;;;;;;;8381447;28;20056;-74
2021/12/17 15:11:11;;;;;;;30.83;12.45;;;;;;;;;;8382085;28;20051;-81
2021/12/17 15:15:18;;;;;;;29.30;11.25;;;;;;;;;;8380377;28;20052;-74
2021/12/17 15:19:23;;;;;;;37.17;13.05;;;;;;;;;;8384441;28;20108;-74
2021/12/17 15:23:27;;;;;;;27.70;11.82;;;;;;;;;;8386035;28;20103;-75
2021/12/17 15:27:33;;;;;;;45.35;18.38;;;;;;;;;;8385965;28;20106;-75
2021/12/17 15:31:37;;;;;;;30.08;12.80;;;;;;;;;;8369373;28;20053;-76
2021/12/17 15:35:45;;;;;;;33.40;13.23;;;;;;;;;;8387297;28;20068;-74
2021/12/17 15:39:49;;;;;;;33.30;15.00;;;;;;;;;;8386445;28;20310;-77
2021/12/17 15:43:53;;;;;;;33.65;13.70;;;;;;;;;;8387995;28;20082;-76
2021/12/17 15:47:59;;;;;;;27.13;13.48;;;;;;;;;;8360073;28;20061;-75
2021/12/17 15:52:08;;;;;;;30.75;13.85;;;;;;;;;;8358512;28;20052;-76
2021/12/17 15:56:19;;;;;;;40.22;15.60;;;;;;;;;;8353540;28;20046;-75
2021/12/17 16:00:33;;;;;;;31.67;15.52;;;;;;;;;;8349734;28;20053;-75
2021/12/17 16:04:44;;;;;;;58.17;27.50;;;;;;;;;;8351212;28;20042;-75
2021/12/17 16:08:56;;;;;;;52.17;26.83;;;;;;;;;;8353627;28;20068;-75
2021/12/17 16:21:52;;;;;;;54.20;24.33;;;;;;;;;;8353254;28;20064;-77
2021/12/17 16:25:59;;;;;;;30.95;13.38;;;;;;;;;;8352439;28;20051;-74
2021/12/17 16:30:02;;;;;;;29.20;14.88;;;;;;;;;;8350367;28;20049;-75
2021/12/17 16:34:08;;;;;;;25.95;13.05;;;;;;;;;;8351764;28;20069;-82
2021/12/17 16:38:14;;;;;;;30.83;12.52;;;;;;;;;;8353799;28;20056;-75
2021/12/17 16:42:19;;;;;;;26.02;11.20;;;;;;;;;;8351950;28;20064;-75
2021/12/17 16:47:01;;;;;;;20.88;9.27;;;;;;;;;;8370713;28;20072;-78
2021/12/17 16:50:52;;;;;;;23.23;10.70;;;;;;;;;;8389440;28;20234;-76
2021/12/17 16:54:56;;;;;;;28.73;11.32;;;;;;;;;;8387761;28;20075;-76
2021/12/17 16:59:02;;;;;;;30.02;12.07;;;;;;;;;;8388146;28;20107;-80
2021/12/17 17:03:06;;;;;;;23.48;10.75;;;;;;;;;;8382651;28;20057;-76
2021/12/17 17:07:17;;;;;;;28.63;14.23;;;;;;;;;;8392580;28;20044;-75
2021/12/17 17:11:28;;;;;;;30.95;11.52;;;;;;;;;;8388863;28;20152;-76
2021/12/17 17:15:35;;;;;;;32.87;15.97;;;;;;;;;;8389441;28;20048;-75
2021/12/17 17:19:39;;;;;;;36.03;12.85;;;;;;;;;;8401242;28;20037;-74
2021/12/17 17:23:49;;;;;;;26.33;10.30;;;;;;;;;;8364772;28;20218;-74
2021/12/17 17:27:58;;;;;;;26.52;10.68;;;;;;;;;;8384382;28;20044;-76
2021/12/17 17:32:05;;;;;;;21.35;9.73;;;;;;;;;;8385518;28;20105;-79
2021/12/17 17:36:08;;;;;;;32.05;13.07;;;;;;;;;;8385004;28;20041;-78
2021/12/17 17:40:14;;;;;;;26.73;9.77;;;;;;;;;;8365799;28;20060;-74
2021/12/17 17:44:17;;;;;;;38.42;18.77;;;;;;;;;;8387116;28;20048;-74
2021/12/17 17:48:31;;;;;;;27.35;11.00;;;;;;;;;;8381292;28;20089;-82
2021/12/17 17:52:38;;;;;;;;;;;;;;;;;;8388360;28;20053;-74
2021/12/17 17:56:49;;;;;;;22.73;10.40;;;;;;;;;;8375299;28;19969;-75
2021/12/17 18:00:55;;;;;;;18.60;7.28;;;;;;;;;;8405019;28;20080;-77
2021/12/17 18:05:09;;;;;;;19.80;8.07;;;;;;;;;;8369988;28;20069;-77
2021/12/17 18:09:13;;;;;;;22.58;8.02;;;;;;;;;;8407695;28;20040;-74
2021/12/17 18:13:22;;;;;;;17.45;8.52;;;;;;;;;;8416897;28;20059;-77
2021/12/17 18:17:26;;;;;;;43.72;14.40;;;;;;;;;;8393437;28;20071;-74
2021/12/17 18:21:32;;;;;;;85.15;29.48;;;;;;;;;;8385208;28;20126;-82
2021/12/17 18:25:37;;;;;;;22.67;8.68;;;;;;;;;;8385925;28;20057;-74
2021/12/17 18:29:43;;;;;;;25.80;8.07;;;;;;;;;;8397806;28;20048;-76
2021/12/17 18:33:51;;;;;;;13.75;5.80;;;;;;;;;;8392170;28;20389;-75
2021/12/17 18:38:02;;;;;;;92.20;29.23;;;;;;;;;;8383016;28;20051;-75
2021/12/17 18:46:50;;;;;;;13.23;6.40;;;;;;;;;;8354068;28;20053;-74
2021/12/17 18:50:59;;;;;;;20.98;8.07;;;;;;;;;;8352230;28;20041;-80
2021/12/17 18:55:06;;;;;;;25.77;9.00;;;;;;;;;;8356239;28;20087;-75
2021/12/17 18:59:11;;;;;;;54.97;18.00;;;;;;;;;;8355279;28;20299;-77
2021/12/17 19:03:16;;;;;;;18.98;6.82;;;;;;;;;;8357122;28;20049;-74
2021/12/17 19:07:19;;;;;;;28.90;11.05;;;;;;;;;;8356929;28;20048;-81
2021/12/17 19:11:24;;;;;;;16.35;6.35;;;;;;;;;;8367375;28;20123;-74
2021/12/17 19:15:28;;;;;;;34.38;13.00;;;;;;;;;;8359887;28;20226;-76
2021/12/17 19:19:40;;;;;;;14.43;6.25;;;;;;;;;;8351080;28;20061;-74
2021/12/17 19:23:44;;;;;;;18.40;7.28;;;;;;;;;;8382352;28;20107;-74
2021/12/17 19:27:50;;;;;;;12.10;5.93;;;;;;;;;;8377074;28;20372;-75
2021/12/17 19:31:53;;;;;;;17.95;5.57;;;;;;;;;;8367882;28;20199;-76
2021/12/17 19:35:56;;;;;;;20.48;7.18;;;;;;;;;;8380470;28;20068;-75
2021/12/17 19:40:00;;;;;;;50.50;15.63;;;;;;;;;;8381881;28;20053;-75
2021/12/17 19:44:06;;;;;;;13.48;6.55;;;;;;;;;;8382061;28;20155;-74
2021/12/17 19:48:26;;;;;;;17.33;6.60;;;;;;;;;;8413177;28;20112;-75
2021/12/17 19:52:29;;;;;;;16.73;7.00;;;;;;;;;;8414138;28;20040;-74
2021/12/17 19:56:34;;;;;;;36.80;11.45;;;;;;;;;;8416747;28;20328;-74
2021/12/17 20:00:40;;;;;;;12.23;6.13;;;;;;;;;;8415656;28;20104;-75
2021/12/17 20:04:44;;;;;;;16.45;6.63;;;;;;;;;;8415592;28;20033;-75
2021/12/17 20:08:49;;;;;;;17.08;6.20;;;;;;;;;;8415349;28;20169;-75
2021/12/17 20:12:55;;;;;;;13.20;6.50;;;;;;;;;;8411384;28;20056;-75
2021/12/17 20:17:03;;;;;;;14.13;6.88;;;;;;;;;;8411793;28;20083;-75
2021/12/17 20:21:07;;;;;;;13.82;5.85;;;;;;;;;;8404731;28;20139;-75
2021/12/17 20:25:11;;;;;;;32.65;9.73;;;;;;;;;;8416275;28;20041;-74
2021/12/17 20:29:15;;;;;;;22.23;7.93;;;;;;;;;;8391256;28;20053;-74
2021/12/17 20:33:20;;;;;;;18.63;6.97;;;;;;;;;;8417156;28;20229;-80
2021/12/17 20:37:26;;;;;;;14.15;6.90;;;;;;;;;;8411440;28;20036;-75
2021/12/17 20:41:37;;;;;;;16.60;7.40;;;;;;;;;;8410364;28;20111;-74
2021/12/17 20:45:47;;;;;;;16.70;5.93;;;;;;;;;;8407417;28;20115;-74
2021/12/17 20:50:10;;;;;;;16.38;6.53;;;;;;;;;;8378092;28;20057;-75
2021/12/17 20:54:16;;;;;;;12.27;6.18;;;;;;;;;;8392700;28;20218;-74
2021/12/17 20:58:41;;;;;;;15.98;6.55;;;;;;;;;;8380804;28;20105;-74
2021/12/17 21:02:49;;;;;;;16.33;6.03;;;;;;;;;;8414872;28;20377;-75
2021/12/17 21:06:55;;;;;;;24.35;10.05;;;;;;;;;;8415355;28;20060;-74
2021/12/17 21:10:58;;;;;;;42.95;16.92;;;;;;;;;;8416158;28;20047;-76
2021/12/17 21:15:02;;;;;;;16.58;7.55;;;;;;;;;;8415087;28;20037;-75
2021/12/17 21:19:06;;;;;;;14.70;5.85;;;;;;;;;;8416787;28;20048;-75
2021/12/17 21:23:14;;;;;;;12.20;5.65;;;;;;;;;;8416202;28;20048;-76
2021/12/17 21:27:19;;;;;;;13.45;6.20;;;;;;;;;;8415127;28;20055;-75
2021/12/17 21:31:28;;;;;;;13.48;6.18;;;;;;;;;;8413485;28;20067;-75
2021/12/17 21:35:32;;;;;;;14.45;5.65;;;;;;;;;;8415330;28;20033;-75
2021/12/17 21:39:39;;;;;;;28.55;11.00;;;;;;;;;;8398994;28;20218;-75
2021/12/17 21:43:44;;;;;;;15.60;6.15;;;;;;;;;;8416692;28;20052;-75
2021/12/17 21:47:47;;;;;;;17.27;6.78;;;;;;;;;;8416438;28;20325;-75
2021/12/17 21:51:51;;;;;;;17.67;7.45;;;;;;;;;;8416427;28;20044;-78
2021/12/17 21:55:56;;;;;;;19.27;8.18;;;;;;;;;;8415317;28;20060;-75
2021/12/17 22:00:02;;;;;;;13.30;6.00;;;;;;;;;;8414557;28;20033;-74
2021/12/17 22:04:11;;;;;;;10.25;5.40;;;;;;;;;;8418360;28;20367;-77
2021/12/17 22:08:15;;;;;;;13.35;6.25;;;;;;;;;;8399294;28;20328;-74
2021/12/17 22:12:23;;;;;;;22.70;6.47;;;;;;;;;;8415896;28;20051;-74
2021/12/17 22:16:27;;;;;;;17.05;6.88;;;;;;;;;;8415198;28;20107;-77
2021/12/17 22:20:35;;;;;;;14.55;7.10;;;;;;;;;;8416822;28;20056;-74
2021/12/17 22:24:39;;;;;;;13.48;6.60;;;;;;;;;;8415685;28;20109;-74
2021/12/17 22:28:44;;;;;;;18.45;6.03;;;;;;;;;;8416649;28;20094;-73
2021/12/17 22:32:50;;;;;;;15.80;6.70;;;;;;;;;;8416189;28;20090;-73
2021/12/17 22:36:54;;;;;;;21.75;6.78;;;;;;;;;;8397919;28;20064;-75
2021/12/17 22:41:06;;;;;;;13.93;5.97;;;;;;;;;;8415139;28;20045;-75
2021/12/17 22:45:12;;;;;;;13.93;6.88;;;;;;;;;;8414959;28;20056;-75
2021/12/17 22:49:15;;;;;;;13.90;6.03;;;;;;;;;;8415041;28;20039;-74
2021/12/17 22:53:18;;;;;;;11.38;5.60;;;;;;;;;;8414481;28;20044;-75
2021/12/17 22:57:21;;;;;;;15.48;6.85;;;;;;;;;;8397344;28;20059;-75
2021/12/17 23:01:29;;;;;;;14.43;6.07;;;;;;;;;;8399130;28;20057;-75
2021/12/17 23:05:32;;;;;;;9.40;5.25;;;;;;;;;;8416340;28;20329;-75
2021/12/17 23:09:39;;;;;;;11.35;5.63;;;;;;;;;;8416632;28;20052;-75
2021/12/17 23:13:42;;;;;;;11.68;5.55;;;;;;;;;;8416959;28;20045;-75
2021/12/17 23:17:47;;;;;;;21.25;7.00;;;;;;;;;;8415923;28;20044;-75
2021/12/17 23:21:51;;;;;;;12.27;5.72;;;;;;;;;;8397714;28;20045;-75
2021/12/17 23:25:55;;;;;;;14.70;6.30;;;;;;;;;;8415201;28;20068;-75
2021/12/17 23:29:59;;;;;;;13.50;6.03;;;;;;;;;;8397301;28;20045;-75
2021/12/17 23:34:08;;;;;;;19.73;6.55;;;;;;;;;;8396599;28;20048;-75
2021/12/17 23:38:11;;;;;;;13.07;5.88;;;;;;;;;;8397639;28;20060;-74
2021/12/17 23:42:18;;;;;;;15.25;6.80;;;;;;;;;;8402862;28;20048;-74
2021/12/17 23:46:21;;;;;;;18.08;8.05;;;;;;;;;;8420064;28;20072;-74
2021/12/17 23:50:26;;;;;;;14.10;6.53;;;;;;;;;;8403616;28;20052;-76
2021/12/17 23:54:30;;;;;;;17.15;7.47;;;;;;;;;;8422541;28;20041;-75
2021/12/17 23:58:35;;;;;;;16.13;6.65;;;;;;;;;;8403745;28;20111;-75
